Time;durP1;ratioP1;P1;durP2;ratioP2;P2;SDS_P1;SDS_P2;PMS_P1;PMS_P2;Temp;Humidity;BMP_temperature;BMP_pressure;BME280_temperature;BME280_humidity;BME280_pressure;Samples;Min_cycle;Max_cycle;Signal;HPM_P1;HPM_P2
2022/02/07 00:00:23;;;;;;;2.45;0.63;;;9.00;71.40;;;;;;20904546;28;20039;-83
2022/02/07 00:10:24;;;;;;;0.68;0.30;;;9.00;71.40;;;;;;20883803;28;20036;-83
2022/02/07 00:20:26;;;;;;;0.63;0.35;;;9.00;71.30;;;;;;20882163;28;20069;-82
2022/02/07 00:30:27;;;;;;;0.65;0.30;;;9.00;71.30;;;;;;20880047;28;20064;-82
2022/02/07 00:40:45;;;;;;;0.80;0.30;;;9.00;71.20;;;;;;20878545;28;20511;-82
2022/02/07 00:50:46;;;;;;;3.30;0.38;;;9.00;71.20;;;;;;20880168;28;20048;-82
2022/02/07 01:00:46;;;;;;;1.10;0.30;;;9.00;71.30;;;;;;20876744;28;20057;-81
2022/02/07 01:10:57;;;;;;;0.35;0.10;;;8.90;71.20;;;;;;20877526;28;20037;-83
2022/02/07 01:52:23;;;;;;;1.38;0.25;;;8.90;71.20;;;;;;20892460;28;20391;-84
2022/02/07 02:02:25;;;;;;;2.65;0.40;;;8.90;71.20;;;;;;20890893;28;20029;-82
2022/02/07 02:12:29;;;;;;;3.83;1.40;;;8.90;71.20;;;;;;20900288;28;20124;-83
2022/02/07 02:33:45;;;;;;;1.63;0.98;;;8.90;71.10;;;;;;20985049;28;20037;-81
2022/02/07 02:53:55;;;;;;;3.33;0.60;;;8.90;71.10;;;;;;20983250;28;20052;-81
2022/02/07 03:03:56;;;;;;;1.17;0.43;;;8.90;71.00;;;;;;20949172;28;20032;-81
2022/02/07 03:13:59;;;;;;;1.92;0.40;;;8.80;70.90;;;;;;20964709;28;20169;-81
2022/02/07 03:24:32;;;;;;;4.53;0.47;;;8.80;70.80;;;;;;20976050;28;20048;-82
2022/02/07 03:34:41;;;;;;;0.73;0.40;;;8.90;70.80;;;;;;20981127;28;20395;-83
2022/02/07 03:44:44;;;;;;;1.63;0.60;;;8.80;70.70;;;;;;20963129;28;20039;-81
2022/02/07 03:54:45;;;;;;;2.10;0.50;;;8.80;70.60;;;;;;20945334;28;20423;-81
2022/02/07 04:04:54;;;;;;;2.47;0.50;;;8.80;70.50;;;;;;20977809;28;20052;-82
2022/02/07 04:14:57;;;;;;;2.55;0.70;;;8.70;70.30;;;;;;20978745;28;20028;-83
2022/02/07 04:24:58;;;;;;;1.77;0.35;;;8.80;70.40;;;;;;20951884;28;20045;-82
2022/02/07 04:35:10;;;;;;;2.33;0.82;;;8.70;70.40;;;;;;20868926;28;20021;-83
2022/02/07 04:55:50;;;;;;;1.60;0.65;;;8.70;70.40;;;;;;20865360;28;20106;-82
2022/02/07 05:15:53;;;;;;;4.88;0.60;;;8.70;70.50;;;;;;20873729;28;20032;-81
2022/02/07 05:25:54;;;;;;;1.77;0.45;;;8.70;70.60;;;;;;20874557;28;20064;-81
2022/02/07 05:36:15;;;;;;;1.08;0.28;;;8.70;70.50;;;;;;20885372;28;20487;-81
2022/02/07 05:46:31;;;;;;;2.00;0.35;;;8.80;70.50;;;;;;20924640;28;20078;-79
2022/02/07 05:56:42;;;;;;;0.70;0.32;;;8.90;70.30;;;;;;21071802;28;20028;-84
2022/02/07 06:06:51;;;;;;;0.50;0.20;;;8.90;69.90;;;;;;21022116;28;20036;-89
2022/02/07 06:16:52;;;;;;;1.08;0.28;;;9.10;69.60;;;;;;20953388;28;20043;-80
2022/02/07 06:26:55;;;;;;;0.93;0.40;;;9.20;69.30;;;;;;20970611;28;20044;-80
2022/02/07 06:36:59;;;;;;;0.63;0.32;;;9.20;69.10;;;;;;21015712;28;20036;-85
2022/02/07 06:47:02;;;;;;;0.73;0.35;;;9.10;69.10;;;;;;20995431;28;20398;-78
2022/02/07 06:57:05;;;;;;;3.25;0.28;;;9.00;69.20;;;;;;21032538;28;20024;-77
2022/02/07 07:07:07;;;;;;;3.00;0.63;;;9.00;69.40;;;;;;21034221;28;20051;-76
2022/02/07 07:17:08;;;;;;;9.23;0.85;;;9.00;69.50;;;;;;20963058;28;20068;-83
2022/02/07 07:27:24;;;;;;;3.78;0.68;;;8.80;69.50;;;;;;20968523;28;20036;-82
2022/02/07 07:37:25;;;;;;;1.98;0.50;;;8.80;69.70;;;;;;20965282;28;20039;-82
2022/02/07 07:47:30;;;;;;;2.22;0.60;;;8.80;69.80;;;;;;21000199;28;20036;-82
2022/02/07 08:08:19;;;;;;;6.30;0.70;;;8.70;70.00;;;;;;20966503;28;20211;-82
2022/02/07 08:18:20;;;;;;;3.38;0.77;;;8.80;70.00;;;;;;20965327;28;20185;-83
2022/02/07 08:28:21;;;;;;;1.95;0.82;;;8.70;70.10;;;;;;20962594;28;20044;-82
2022/02/07 08:38:24;;;;;;;1.92;0.52;;;8.80;70.30;;;;;;20945982;28;20024;-82
2022/02/07 08:48:26;;;;;;;3.35;0.75;;;8.70;70.20;;;;;;20963932;28;20483;-83
2022/02/07 08:58:29;;;;;;;2.60;1.00;;;8.70;70.30;;;;;;20971029;28;20356;-82
2022/02/07 09:08:54;;;;;;;5.10;1.00;;;8.70;70.40;;;;;;21019514;28;20041;-83
2022/02/07 09:18:50;;;;;;;3.05;0.75;;;8.70;70.50;;;;;;21008842;28;20047;-83
2022/02/07 09:28:52;;;;;;;9.50;0.77;;;8.70;70.60;;;;;;20987714;28;20061;-83
2022/02/07 09:38:56;;;;;;;5.68;0.60;;;8.70;70.60;;;;;;20985417;28;20052;-80
2022/02/07 09:49:00;;;;;;;6.72;1.42;;;8.70;70.60;;;;;;21004456;28;20036;-86
2022/02/07 09:59:01;;;;;;;4.72;1.20;;;8.70;70.70;;;;;;21056382;28;20090;-87
2022/02/07 10:10:00;;;;;;;3.30;1.00;;;8.60;70.70;;;;;;20970123;28;20062;-84
2022/02/07 10:19:47;;;;;;;10.18;1.65;;;8.70;70.70;;;;;;20987817;28;20036;-86
2022/02/07 10:50:23;;;;;;;7.43;1.30;;;8.60;70.50;;;;;;20993643;28;20417;-87
2022/02/07 11:00:41;;;;;;;3.92;1.08;;;8.60;70.50;;;;;;21040220;28;20127;-86
2022/02/07 11:21:15;;;;;;;5.28;1.63;;;8.60;70.40;;;;;;20957573;28;20044;-80
2022/02/07 11:31:15;;;;;;;7.80;1.85;;;8.70;70.40;;;;;;20948630;28;20040;-77
2022/02/07 11:41:19;;;;;;;20.57;3.07;;;8.70;70.20;;;;;;20950528;28;20051;-79
2022/02/07 11:51:38;;;;;;;7.18;1.80;;;8.70;70.10;;;;;;20981791;28;20297;-78
2022/02/07 12:01:56;;;;;;;14.73;1.77;;;8.70;69.80;;;;;;21371138;22;20057;-79
2022/02/07 12:11:57;;;;;;;7.85;2.15;;;8.60;69.70;;;;;;20975627;28;20032;-78
2022/02/07 12:21:57;;;;;;;7.43;1.88;;;8.60;69.50;;;;;;20910356;28;20406;-78
2022/02/07 12:31:59;;;;;;;3.10;1.50;;;8.60;69.40;;;;;;20891262;28;20295;-75
2022/02/07 12:42:01;;;;;;;6.90;1.45;;;8.60;69.30;;;;;;20972129;28;20548;-74
2022/02/07 12:52:02;;;;;;;3.55;1.30;;;8.60;69.20;;;;;;20984854;28;20032;-78
2022/02/07 13:02:03;;;;;;;5.15;2.10;;;8.60;69.00;;;;;;20987978;28;20046;-80
2022/02/07 13:22:10;;;;;;;3.55;1.25;;;8.60;69.20;;;;;;20971099;28;20478;-80
2022/02/07 13:32:12;;;;;;;4.15;1.48;;;8.60;69.30;;;;;;20975885;28;20039;-78
2022/02/07 13:42:15;;;;;;;4.32;1.25;;;8.60;69.40;;;;;;20986098;28;20474;-79
2022/02/07 13:52:15;;;;;;;5.35;1.17;;;8.60;69.40;;;;;;20951588;28;20115;-77
2022/02/07 14:02:29;;;;;;;10.77;1.33;;;8.60;69.40;;;;;;20985417;28;20064;-76
2022/02/07 14:12:29;;;;;;;3.72;0.88;;;8.60;69.40;;;;;;20985185;28;20478;-77
2022/02/07 14:22:35;;;;;;;7.00;1.52;;;8.60;69.50;;;;;;21001352;28;20032;-76
2022/02/07 14:32:35;;;;;;;7.35;1.15;;;8.60;69.70;;;;;;20983561;28;20490;-75
2022/02/07 14:42:37;;;;;;;6.45;1.17;;;8.60;69.60;;;;;;20998833;28;20479;-82
2022/02/07 14:52:39;;;;;;;6.30;1.00;;;8.60;69.80;;;;;;20971799;28;20029;-75
2022/02/07 15:02:41;;;;;;;13.23;2.17;;;8.70;69.70;;;;;;20994564;28;20064;-76
2022/02/07 15:12:41;;;;;;;7.70;1.25;;;8.60;69.70;;;;;;20959245;28;20040;-74
2022/02/07 15:22:47;;;;;;;3.90;2.05;;;8.60;69.80;;;;;;20976968;28;20112;-74
2022/02/07 15:32:50;;;;;;;4.53;1.23;;;8.50;69.70;;;;;;20968430;28;20039;-74
2022/02/07 15:42:54;;;;;;;6.93;1.45;;;8.50;69.40;;;;;;20959265;28;20035;-74
2022/02/07 15:52:56;;;;;;;6.03;1.15;;;8.50;69.30;;;;;;20974399;28;20389;-75
2022/02/07 16:02:57;;;;;;;5.40;1.20;;;8.60;69.10;;;;;;20973929;28;20119;-75
2022/02/07 16:13:45;;;;;;;5.63;1.35;;;8.70;68.70;;;;;;20940427;28;20501;-75
2022/02/07 16:23:30;;;;;;;4.72;1.10;;;8.80;68.40;;;;;;20978651;28;20048;-75
2022/02/07 16:33:31;;;;;;;6.95;1.30;;;9.10;67.80;;;;;;20971124;28;20032;-74
2022/02/07 16:43:36;;;;;;;8.07;1.23;;;9.30;67.20;;;;;;20954602;28;20492;-72
2022/02/07 16:53:37;;;;;;;5.88;1.60;;;9.50;66.80;;;;;;20977722;28;20031;-75
2022/02/07 17:03:41;;;;;;;4.05;1.45;;;9.40;66.80;;;;;;20955062;28;20033;-75
2022/02/07 17:13:41;;;;;;;3.97;1.20;;;9.30;66.80;;;;;;20988039;28;20028;-79
2022/02/07 17:23:42;;;;;;;6.97;1.75;;;9.30;67.10;;;;;;21005234;28;20481;-77
2022/02/07 17:33:43;;;;;;;6.80;1.65;;;9.10;67.30;;;;;;21005039;28;20025;-74
2022/02/07 17:43:46;;;;;;;5.22;1.27;;;9.00;67.60;;;;;;20989720;28;20083;-74
2022/02/07 17:53:47;;;;;;;5.72;1.20;;;8.90;67.80;;;;;;20971888;28;20032;-75
2022/02/07 18:03:47;;;;;;;7.30;1.08;;;8.90;68.10;;;;;;20987446;28;20035;-75
2022/02/07 18:13:50;;;;;;;4.93;1.70;;;8.80;68.20;;;;;;20986967;28;20025;-74
2022/02/07 18:23:52;;;;;;;4.05;1.20;;;8.80;68.30;;;;;;20986407;28;20039;-76
2022/02/07 18:33:54;;;;;;;6.30;1.40;;;8.70;68.40;;;;;;20986539;28;20517;-75
2022/02/07 18:43:56;;;;;;;2.83;1.17;;;8.70;68.60;;;;;;21005330;28;20132;-79
2022/02/07 18:53:59;;;;;;;5.90;1.70;;;8.70;68.70;;;;;;20959535;28;20024;-75
2022/02/07 19:04:06;;;;;;;4.70;1.52;;;8.70;69.50;;;;;;20987194;28;20037;-77
2022/02/07 19:14:09;;;;;;;6.57;1.80;;;8.60;68.90;;;;;;20963013;28;20035;-71
2022/02/07 19:24:16;;;;;;;14.93;3.03;;;8.60;69.00;;;;;;20978395;28;20055;-72
2022/02/07 19:34:34;;;;;;;5.53;1.88;;;8.60;69.10;;;;;;20996593;28;20044;-74
2022/02/07 19:44:43;;;;;;;6.90;1.38;;;8.60;69.20;;;;;;20977327;28;20036;-74
2022/02/07 19:54:45;;;;;;;5.95;1.42;;;8.60;69.30;;;;;;20975421;28;20064;-75
2022/02/07 20:04:53;;;;;;;4.30;1.88;;;8.60;69.40;;;;;;20987493;28;20052;-74
2022/02/07 20:14:54;;;;;;;2.55;1.20;;;8.60;69.50;;;;;;20958598;28;20032;-72
2022/02/07 20:24:54;;;;;;;3.92;1.27;;;8.60;69.60;;;;;;20972698;28;20079;-72
2022/02/07 20:34:56;;;;;;;5.05;1.58;;;8.60;69.70;;;;;;20989133;28;20043;-74
2022/02/07 20:44:58;;;;;;;3.65;1.50;;;8.50;69.70;;;;;;20971625;28;20041;-74
2022/02/07 20:54:59;;;;;;;5.65;1.55;;;8.60;69.80;;;;;;20971301;28;20390;-73
2022/02/07 21:05:03;;;;;;;5.97;1.10;;;8.50;69.80;;;;;;20954661;28;20028;-73
2022/02/07 21:15:06;;;;;;;2.75;0.90;;;8.50;69.80;;;;;;20970824;28;20435;-73
2022/02/07 21:25:06;;;;;;;5.68;1.38;;;8.60;69.90;;;;;;20970381;28;20036;-72
2022/02/07 21:35:10;;;;;;;2.03;0.95;;;8.60;69.90;;;;;;20969314;28;20041;-72
2022/02/07 21:45:14;;;;;;;8.20;1.30;;;8.60;69.90;;;;;;20969895;28;20043;-72
2022/02/07 21:55:15;;;;;;;2.97;1.00;;;8.50;69.90;;;;;;20993828;28;20085;-73
2022/02/07 22:05:16;;;;;;;3.35;1.20;;;8.50;69.90;;;;;;20983208;28;20072;-73
2022/02/07 22:25:18;;;;;;;5.93;1.17;;;8.60;69.90;;;;;;20980882;28;20043;-73
2022/02/07 22:35:18;;;;;;;1.90;0.90;;;8.50;69.90;;;;;;20964285;28;20037;-73
2022/02/07 22:45:19;;;;;;;7.47;1.83;;;8.50;69.80;;;;;;20979931;28;20301;-72
2022/02/07 22:55:20;;;;;;;2.65;1.05;;;8.50;69.80;;;;;;20979816;28;20462;-72
2022/02/07 23:05:42;;;;;;;4.35;1.23;;;8.50;69.80;;;;;;20992064;28;20039;-74
2022/02/07 23:15:49;;;;;;;4.85;1.30;;;8.50;69.80;;;;;;20980922;28;20402;-72
2022/02/07 23:36:13;;;;;;;3.08;0.88;;;8.50;69.80;;;;;;20993510;28;19908;-72
2022/02/07 23:46:19;;;;;;;1.95;0.98;;;8.50;69.80;;;;;;20991990;28;20032;-72
